createdAt,value
2019-04-22T00:01:31.166Z,11.83
2019-04-22T00:04:10.030Z,11.83
2019-04-22T00:07:01.351Z,11.86
2019-04-22T00:09:39.974Z,11.93
2019-04-22T00:12:14.567Z,11.87
2019-04-22T00:14:43.839Z,11.79
2019-04-22T00:17:25.059Z,11.76
2019-04-22T00:19:57.568Z,11.77
2019-04-22T00:22:27.414Z,11.74
2019-04-22T00:25:10.663Z,11.70
2019-04-22T00:30:13.810Z,11.62
2019-04-22T00:33:02.812Z,11.55
2019-04-22T00:35:35.461Z,11.51
2019-04-22T00:38:20.316Z,11.41
2019-04-22T00:43:24.403Z,11.42
2019-04-22T00:45:57.768Z,11.29
2019-04-22T00:48:57.862Z,11.20
2019-04-22T00:51:13.917Z,11.12
2019-04-22T00:53:39.191Z,11.05
2019-04-22T00:58:48.384Z,11.01
2019-04-22T01:01:26.627Z,11.01
2019-04-22T01:06:25.832Z,10.95
2019-04-22T01:09:07.145Z,10.86
2019-04-22T01:11:33.525Z,10.86
2019-04-22T01:14:07.423Z,10.80
2019-04-22T01:16:48.545Z,10.79
2019-04-22T01:19:23.495Z,10.69
2019-04-22T01:21:56.376Z,10.71
2019-04-22T01:24:26.423Z,10.68
2019-04-22T01:26:58.137Z,10.72
2019-04-22T01:29:27.939Z,10.72
2019-04-22T01:31:50.707Z,10.67
2019-04-22T01:34:38.820Z,10.59
2019-04-22T01:37:13.739Z,10.52
2019-04-22T01:40:00.171Z,10.49
2019-04-22T01:42:32.654Z,10.41
2019-04-22T01:45:06.952Z,10.38
2019-04-22T01:47:36.373Z,10.30
2019-04-22T01:50:16.959Z,10.24
2019-04-22T01:52:47.326Z,10.26
2019-04-22T01:55:27.410Z,10.22
2019-04-22T01:57:47.528Z,10.15
2019-04-22T02:00:27.394Z,10.19
2019-04-22T02:03:07.251Z,10.15
2019-04-22T02:05:40.751Z,10.10
2019-04-22T02:08:19.870Z,10.04
2019-04-22T02:10:49.273Z,10.01
2019-04-22T02:13:26.884Z,9.99
2019-04-22T02:15:57.144Z,9.93
2019-04-22T02:18:31.915Z,9.95
2019-04-22T02:21:01.465Z,9.96
2019-04-22T02:26:25.588Z,9.93
2019-04-22T02:28:39.914Z,9.87
2019-04-22T02:31:26.016Z,9.91
2019-04-22T02:34:08.999Z,10.00
2019-04-22T02:36:30.262Z,10.00
2019-04-22T02:41:32.469Z,10.08
2019-04-22T02:51:44.949Z,9.83
2019-04-22T02:57:04.546Z,9.74
2019-04-22T02:59:34.549Z,9.77
2019-04-22T03:04:47.226Z,9.71
2019-04-22T03:07:12.794Z,9.77
2019-04-22T03:12:26.990Z,9.75
2019-04-22T03:15:00.064Z,9.73
2019-04-22T03:17:38.953Z,9.72
2019-04-22T03:20:22.076Z,9.68
2019-04-22T03:22:47.398Z,9.65
2019-04-22T03:43:13.621Z,9.38
2019-04-22T03:45:40.105Z,9.31
2019-04-22T03:48:15.888Z,9.24
2019-04-22T03:50:59.355Z,9.35
2019-04-22T03:56:30.974Z,9.32
2019-04-22T03:58:41.069Z,9.33
2019-04-22T04:01:18.439Z,9.29
2019-04-22T04:03:57.840Z,9.32
2019-04-22T04:06:22.978Z,9.25
2019-04-22T04:11:38.568Z,9.21
2019-04-22T04:14:12.309Z,9.12
2019-04-22T04:16:39.242Z,9.02
2019-04-22T04:21:40.672Z,8.91
2019-04-22T04:24:42.283Z,8.83
2019-04-22T04:27:10.951Z,8.85
2019-04-22T04:32:18.749Z,8.86
2019-04-22T04:34:56.266Z,8.87
2019-04-22T04:37:22.644Z,8.87
2019-04-22T04:47:44.113Z,8.90
2019-04-22T04:52:50.827Z,8.99
2019-04-22T04:55:18.052Z,9.06
2019-04-22T04:57:54.396Z,9.13
2019-04-22T05:05:29.365Z,9.34
2019-04-22T05:07:55.394Z,9.41
2019-04-22T05:10:44.986Z,9.51
2019-04-22T05:13:06.715Z,9.60
2019-04-22T05:20:57.146Z,9.86
2019-04-22T05:23:28.874Z,10.01
2019-04-22T05:25:55.114Z,10.03
2019-04-22T05:28:27.075Z,10.15
2019-04-22T05:31:05.045Z,10.20
2019-04-22T05:33:32.093Z,10.22
2019-04-22T05:36:10.587Z,10.33
2019-04-22T05:38:42.773Z,10.33
2019-04-22T05:41:08.934Z,10.44
2019-04-22T05:43:50.221Z,10.48
2019-04-22T05:46:15.375Z,10.59
2019-04-22T05:49:15.035Z,10.73
2019-04-22T05:51:31.416Z,10.82
2019-04-22T05:54:03.743Z,10.95
2019-04-22T05:56:37.160Z,11.07
2019-04-22T05:59:15.867Z,11.17
2019-04-22T06:01:55.112Z,11.29
2019-04-22T06:04:19.926Z,11.38
2019-04-22T06:06:46.967Z,11.43
2019-04-22T06:09:33.517Z,11.52
2019-04-22T06:12:01.257Z,11.58
2019-04-22T06:14:34.282Z,11.70
2019-04-22T06:17:12.396Z,11.93
2019-04-22T06:19:49.073Z,12.03
2019-04-22T06:22:30.539Z,12.14
2019-04-22T06:24:55.318Z,12.23
2019-04-22T06:27:30.784Z,12.31
2019-04-22T06:30:07.720Z,12.43
2019-04-22T06:32:34.591Z,12.55
2019-04-22T06:35:19.770Z,12.63
2019-04-22T06:37:55.025Z,12.62
2019-04-22T06:40:24.855Z,12.69
2019-04-22T06:42:58.594Z,12.75
2019-04-22T06:45:25.886Z,12.83
2019-04-22T06:48:06.771Z,12.80
2019-04-22T06:50:38.453Z,12.95
2019-04-22T06:53:23.949Z,13.10
2019-04-22T06:55:44.337Z,13.14
2019-04-22T06:58:15.281Z,13.22
2019-04-22T07:00:44.466Z,13.22
2019-04-22T07:05:57.021Z,13.31
2019-04-22T07:11:04.627Z,13.50
2019-04-22T07:13:43.982Z,13.55
2019-04-22T07:16:13.723Z,13.59
2019-04-22T07:19:02.176Z,13.63
2019-04-22T07:21:25.973Z,13.81
2019-04-22T07:26:24.953Z,13.98
2019-04-22T07:29:01.710Z,14.10
2019-04-22T07:31:34.164Z,14.23
2019-04-22T07:34:17.873Z,14.29
2019-04-22T07:39:15.639Z,14.54
2019-04-22T07:41:51.507Z,14.73
2019-04-22T07:47:08.392Z,15.08
2019-04-22T07:49:39.214Z,15.23
2019-04-22T07:52:09.749Z,15.41
2019-04-22T07:54:43.450Z,15.55
2019-04-22T07:57:19.918Z,15.67
2019-04-22T07:59:54.105Z,15.69
2019-04-22T08:02:30.685Z,15.83
2019-04-22T08:05:05.320Z,15.98
2019-04-22T08:07:34.609Z,16.16
2019-04-22T08:10:14.287Z,16.42
2019-04-22T08:12:45.672Z,16.57
2019-04-22T08:15:16.685Z,16.70
2019-04-22T08:20:22.625Z,16.95
2019-04-22T08:23:01.271Z,17.01
2019-04-22T08:25:27.185Z,17.01
2019-04-22T08:28:03.316Z,17.08
2019-04-22T08:30:41.417Z,17.10
2019-04-22T08:33:16.011Z,17.08
2019-04-22T08:36:02.097Z,17.18
2019-04-22T08:41:24.177Z,17.46
2019-04-22T08:46:29.862Z,17.87
2019-04-22T08:51:31.009Z,17.97
2019-04-22T08:54:04.936Z,18.08
2019-04-22T08:56:37.717Z,18.12
2019-04-22T08:59:12.339Z,18.07
2019-04-22T09:01:43.501Z,18.19
2019-04-22T09:04:16.601Z,18.20
2019-04-22T09:07:10.449Z,18.28
2019-04-22T09:09:34.001Z,18.46
2019-04-22T09:12:08.217Z,18.38
2019-04-22T09:14:44.562Z,18.43
2019-04-22T09:17:14.688Z,18.55
2019-04-22T09:19:47.809Z,18.73
2019-04-22T09:22:16.957Z,18.87
2019-04-22T09:24:51.768Z,18.91
2019-04-22T09:27:33.160Z,18.92
2019-04-22T09:30:01.259Z,18.94
2019-04-22T09:32:38.775Z,18.94
2019-04-22T09:35:09.479Z,18.92
2019-04-22T09:37:56.005Z,19.01
2019-04-22T09:40:18.389Z,18.97
2019-04-22T09:42:53.028Z,18.93
2019-04-22T09:45:21.752Z,18.77
2019-04-22T09:48:03.234Z,19.02
2019-04-22T09:50:38.348Z,19.31
2019-04-22T09:53:08.290Z,19.44
2019-04-22T09:55:41.677Z,19.57
2019-04-22T09:58:20.738Z,19.61
2019-04-22T10:01:18.654Z,19.55
2019-04-22T10:03:44.545Z,19.52
2019-04-22T10:09:13.060Z,19.81
2019-04-22T10:14:01.654Z,19.70
2019-04-22T10:16:39.419Z,19.72
2019-04-22T10:21:46.337Z,19.56
2019-04-22T10:24:13.851Z,19.64
2019-04-22T10:29:41.667Z,19.66
2019-04-22T10:31:57.229Z,19.84
2019-04-22T10:34:16.748Z,19.81
2019-04-22T10:36:39.895Z,20.04
2019-04-22T10:39:13.608Z,20.06
2019-04-22T10:41:46.438Z,20.19
2019-04-22T10:44:19.193Z,20.12
2019-04-22T10:46:51.953Z,20.13
2019-04-22T10:49:24.603Z,20.21
2019-04-22T10:51:58.277Z,20.36
2019-04-22T10:54:31.494Z,20.32
2019-04-22T10:57:03.807Z,20.19
2019-04-22T10:59:36.413Z,20.13
2019-04-22T11:02:09.769Z,20.25
2019-04-22T11:04:42.048Z,20.33
2019-04-22T11:07:15.420Z,20.25
2019-04-22T11:09:57.111Z,20.20
2019-04-22T11:12:26.520Z,20.14
2019-04-22T11:14:58.094Z,20.11
2019-04-22T11:17:31.551Z,20.11
2019-04-22T11:20:04.020Z,20.34
2019-04-22T11:22:37.320Z,20.49
2019-04-22T11:25:11.898Z,20.40
2019-04-22T11:27:44.601Z,20.51
2019-04-22T11:30:21.903Z,20.55
2019-04-22T11:32:51.559Z,20.50
2019-04-22T11:35:23.921Z,20.48
2019-04-22T11:37:56.867Z,20.56
2019-04-22T11:40:36.157Z,20.60
2019-04-22T11:43:04.032Z,20.49
2019-04-22T11:45:37.367Z,20.47
2019-04-22T11:48:11.050Z,20.54
2019-04-22T11:50:44.288Z,20.50
2019-04-22T11:53:16.751Z,20.79
2019-04-22T11:55:49.090Z,20.86
2019-04-22T11:58:21.274Z,20.85
2019-04-22T12:00:55.195Z,20.67
2019-04-22T12:03:28.662Z,20.65
2019-04-22T12:06:02.097Z,20.50
2019-04-22T12:08:34.345Z,20.40
2019-04-22T12:11:08.002Z,20.59
2019-04-22T12:13:42.217Z,20.72
2019-04-22T12:16:14.456Z,21.03
2019-04-22T12:18:47.241Z,20.90
2019-04-22T12:21:19.561Z,21.10
2019-04-22T12:23:52.811Z,21.06
2019-04-22T12:26:26.911Z,20.99
2019-04-22T12:28:59.357Z,20.86
2019-04-22T12:31:31.671Z,21.02
2019-04-22T12:34:05.870Z,20.91
2019-04-22T12:36:38.522Z,21.03
2019-04-22T12:39:11.578Z,20.98
2019-04-22T12:41:44.403Z,21.04
2019-04-22T12:44:18.074Z,20.87
2019-04-22T12:46:50.381Z,20.89
2019-04-22T12:49:22.601Z,21.02
2019-04-22T12:51:54.881Z,21.00
2019-04-22T12:54:27.014Z,21.05
2019-04-22T12:56:59.814Z,21.07
2019-04-22T12:59:32.043Z,21.07
2019-04-22T13:02:04.987Z,21.26
2019-04-22T13:04:38.500Z,21.29
2019-04-22T13:07:11.556Z,21.28
2019-04-22T13:09:45.405Z,21.33
2019-04-22T13:12:19.255Z,21.35
2019-04-22T13:14:52.802Z,21.22
2019-04-22T13:17:25.333Z,21.20
2019-04-22T13:19:58.404Z,21.28
2019-04-22T13:22:32.560Z,21.46
2019-04-22T13:25:07.964Z,21.75
2019-04-22T13:27:40.081Z,21.57
2019-04-22T13:30:14.510Z,21.70
2019-04-22T13:32:47.115Z,21.75
2019-04-22T13:35:22.249Z,21.78
2019-04-22T13:37:55.013Z,21.84
2019-04-22T13:40:28.711Z,21.76
2019-04-22T13:43:01.066Z,21.39
2019-04-22T13:45:33.960Z,21.57
2019-04-22T13:48:26.725Z,21.56
2019-04-22T13:56:10.118Z,21.49
2019-04-22T13:58:35.584Z,21.40
2019-04-22T14:01:00.734Z,21.36
2019-04-22T14:03:52.291Z,21.26
2019-04-22T14:06:25.032Z,21.10
2019-04-22T14:08:58.752Z,21.17
2019-04-22T14:11:39.340Z,21.11
2019-04-22T14:14:05.352Z,20.87
2019-04-22T14:16:37.552Z,20.84
2019-04-22T14:19:10.064Z,20.95
2019-04-22T14:21:44.361Z,20.99
2019-04-22T14:24:17.835Z,20.95
2019-04-22T14:27:03.627Z,20.97
2019-04-22T14:29:24.153Z,20.86
2019-04-22T14:32:05.505Z,20.75
2019-04-22T14:34:30.842Z,20.83
2019-04-22T14:37:05.767Z,20.76
2019-04-22T14:39:38.068Z,20.61
2019-04-22T14:42:28.450Z,20.56
2019-04-22T14:45:20.228Z,20.34
2019-04-22T14:47:47.979Z,20.08
2019-04-22T14:50:12.378Z,19.94
2019-04-22T14:52:45.987Z,19.90
2019-04-22T14:55:09.170Z,19.85
2019-04-22T14:57:36.267Z,19.77
2019-04-22T15:00:09.776Z,19.86
2019-04-22T15:02:42.132Z,19.72
2019-04-22T15:05:18.239Z,19.63
2019-04-22T15:07:50.692Z,19.59
2019-04-22T15:10:24.264Z,19.63
2019-04-22T15:12:58.748Z,19.61
2019-04-22T15:15:51.535Z,19.57
2019-04-22T15:18:33.553Z,19.57
2019-04-22T15:21:14.816Z,19.52
2019-04-22T15:23:48.421Z,19.51
2019-04-22T15:26:22.271Z,19.42
2019-04-22T15:28:55.476Z,19.33
2019-04-22T15:31:29.055Z,19.36
2019-04-22T15:34:02.642Z,19.24
2019-04-22T15:36:35.921Z,19.06
2019-04-22T15:39:09.392Z,18.99
2019-04-22T15:41:50.395Z,19.07
2019-04-22T15:44:15.511Z,18.97
2019-04-22T15:46:48.860Z,18.85
2019-04-22T15:49:22.372Z,18.75
2019-04-22T15:51:57.551Z,18.74
2019-04-22T15:54:29.841Z,18.74
2019-04-22T15:57:02.605Z,18.82
2019-04-22T15:59:52.629Z,18.74
2019-04-22T16:02:10.078Z,18.70
2019-04-22T16:04:44.538Z,18.74
2019-04-22T16:07:17.166Z,18.67
2019-04-22T16:09:49.921Z,18.55
2019-04-22T16:12:30.352Z,18.55
2019-04-22T16:14:59.186Z,18.53
2019-04-22T16:17:30.832Z,18.51
2019-04-22T16:20:03.655Z,18.51
2019-04-22T16:22:55.094Z,18.51
2019-04-22T16:25:45.281Z,18.50
2019-04-22T16:28:17.609Z,18.46
2019-04-22T16:30:51.084Z,18.49
2019-04-22T16:33:23.514Z,18.38
2019-04-22T16:35:55.658Z,18.26
2019-04-22T16:38:28.865Z,18.26
2019-04-22T16:41:01.199Z,18.21
2019-04-22T16:43:33.311Z,18.17
2019-04-22T16:46:05.833Z,18.08
2019-04-22T16:48:39.817Z,18.03
2019-04-22T16:51:13.866Z,18.00
2019-04-22T16:53:49.592Z,17.93
2019-04-22T16:56:22.578Z,17.91
2019-04-22T16:58:54.958Z,17.89
2019-04-22T17:01:52.768Z,17.86
2019-04-22T17:04:38.675Z,17.80
2019-04-22T17:07:13.994Z,17.78
2019-04-22T17:09:46.212Z,17.73
2019-04-22T17:12:19.609Z,17.69
2019-04-22T17:14:56.757Z,17.68
2019-04-22T17:17:26.689Z,17.64
2019-04-22T17:19:59.630Z,17.57
2019-04-22T17:22:33.474Z,17.53
2019-04-22T17:25:08.501Z,17.48
2019-04-22T17:27:41.442Z,17.45
2019-04-22T17:30:16.924Z,17.39
2019-04-22T17:32:50.266Z,17.31
2019-04-22T17:35:24.217Z,17.26
2019-04-22T17:38:08.754Z,17.21
2019-04-22T17:40:49.566Z,17.16
2019-04-22T17:43:36.523Z,17.09
2019-04-22T17:46:23.394Z,17.07
2019-04-22T17:49:10.927Z,16.99
2019-04-22T17:52:04.713Z,16.94
2019-04-22T17:54:38.503Z,16.82
2019-04-22T17:57:09.817Z,16.76
2019-04-22T17:59:45.227Z,16.72
2019-04-22T18:02:15.376Z,16.67
2019-04-22T18:04:38.721Z,16.58
2019-04-22T18:07:45.772Z,16.55
2019-04-22T18:12:42.579Z,16.45
2019-04-22T18:15:16.213Z,16.36
2019-04-22T18:17:52.633Z,16.31
2019-04-22T18:20:17.513Z,16.23
2019-04-22T18:22:49.365Z,16.14
2019-04-22T18:25:24.221Z,16.06
2019-04-22T18:28:11.593Z,16.01
2019-04-22T18:30:33.478Z,15.93
2019-04-22T18:33:15.424Z,15.85
2019-04-22T18:35:44.508Z,15.78
2019-04-22T18:38:39.641Z,15.69
2019-04-22T18:40:59.035Z,15.61
2019-04-22T18:43:35.273Z,15.53
2019-04-22T18:46:11.190Z,15.50
2019-04-22T18:48:46.181Z,15.44
2019-04-22T18:51:24.906Z,15.37
2019-04-22T18:54:18.295Z,15.32
2019-04-22T18:56:50.413Z,15.28
2019-04-22T18:59:17.467Z,15.20
2019-04-22T19:01:43.905Z,15.14
2019-04-22T19:04:24.665Z,15.09
2019-04-22T19:07:17.287Z,15.01
2019-04-22T19:09:48.356Z,14.93
2019-04-22T19:14:59.041Z,14.79
2019-04-22T19:20:11.986Z,14.65
2019-04-22T19:22:45.512Z,14.64
2019-04-22T19:25:05.868Z,14.55
2019-04-22T19:27:42.275Z,14.48
2019-04-22T19:30:27.469Z,14.44
2019-04-22T19:33:04.074Z,14.39
2019-04-22T19:35:24.264Z,14.34
2019-04-22T19:37:57.400Z,14.27
2019-04-22T19:40:55.208Z,14.24
2019-04-22T19:43:27.471Z,14.17
2019-04-22T19:45:49.003Z,14.11
2019-04-22T19:48:35.863Z,14.07
2019-04-22T19:51:08.881Z,14.01
2019-04-22T19:53:38.817Z,13.94
2019-04-22T19:56:06.053Z,13.87
2019-04-22T19:58:41.367Z,13.87
2019-04-22T20:01:34.585Z,13.80
2019-04-22T20:04:39.783Z,13.74
2019-04-22T20:07:06.780Z,13.63
2019-04-22T20:09:43.771Z,13.54
2019-04-22T20:12:18.879Z,13.48
2019-04-22T20:14:49.435Z,13.48
2019-04-22T20:17:28.665Z,13.43
2019-04-22T20:20:06.359Z,13.37
2019-04-22T20:22:30.276Z,13.37
2019-04-22T20:24:56.459Z,13.29
2019-04-22T20:27:44.246Z,13.27
2019-04-22T20:30:17.288Z,13.23
2019-04-22T20:32:44.612Z,13.19
2019-04-22T20:35:30.915Z,13.18
2019-04-22T20:37:56.844Z,13.18
2019-04-22T20:40:34.763Z,13.19
2019-04-22T20:43:09.331Z,13.18
2019-04-22T20:45:39.745Z,13.15
2019-04-22T20:48:05.841Z,13.13
2019-04-22T20:50:48.079Z,13.11
2019-04-22T20:53:26.137Z,13.06
2019-04-22T20:56:00.645Z,13.02
2019-04-22T20:58:32.976Z,12.98
2019-04-22T21:00:56.812Z,12.93
2019-04-22T21:03:29.374Z,12.87
2019-04-22T21:06:11.746Z,12.81
2019-04-22T21:08:47.610Z,12.74
2019-04-22T21:11:19.656Z,12.71
2019-04-22T21:13:53.021Z,12.67
2019-04-22T21:16:34.255Z,12.62
2019-04-22T21:19:02.794Z,12.58
2019-04-22T21:21:37.987Z,12.53
2019-04-22T21:24:02.904Z,12.52
2019-04-22T21:26:43.744Z,12.47
2019-04-22T21:29:16.053Z,12.40
2019-04-22T21:31:54.554Z,12.37
2019-04-22T21:34:26.259Z,12.32
2019-04-22T21:37:07.957Z,12.30
2019-04-22T21:39:30.451Z,12.17
2019-04-22T21:42:06.343Z,12.20
2019-04-22T21:44:38.378Z,12.18
2019-04-22T21:47:26.958Z,12.11
2019-04-22T21:50:07.852Z,12.09
2019-04-22T21:52:28.140Z,12.04
2019-04-22T21:55:07.512Z,12.00
2019-04-22T21:58:02.618Z,11.98
2019-04-22T22:00:43.191Z,11.93
2019-04-22T22:03:13.128Z,11.88
2019-04-22T22:05:35.478Z,11.86
2019-04-22T22:08:23.107Z,11.81
2019-04-22T22:10:52.555Z,11.77
2019-04-22T22:13:30.140Z,11.71
2019-04-22T22:15:59.827Z,11.64
2019-04-22T22:18:30.317Z,11.58
2019-04-22T22:21:28.355Z,11.52
2019-04-22T22:23:42.449Z,11.41
2019-04-22T22:26:15.640Z,11.36
2019-04-22T22:29:02.432Z,11.30
2019-04-22T22:31:28.583Z,11.20
2019-04-22T22:34:01.865Z,11.18
2019-04-22T22:36:31.304Z,11.15
2019-04-22T22:39:03.197Z,11.11
2019-04-22T22:41:21.619Z,10.98
2019-04-22T22:44:04.408Z,10.99
2019-04-22T22:46:37.420Z,10.96
2019-04-22T22:49:23.013Z,10.92
2019-04-22T22:52:14.770Z,10.86
2019-04-22T22:54:34.423Z,10.79
2019-04-22T22:57:09.086Z,10.78
2019-04-22T22:59:40.265Z,10.76
2019-04-22T23:02:11.628Z,10.69
2019-04-22T23:04:45.931Z,10.68
2019-04-22T23:07:22.643Z,10.66
2019-04-22T23:09:53.789Z,10.61
2019-04-22T23:12:34.986Z,10.54
2019-04-22T23:14:58.998Z,10.51
2019-04-22T23:17:23.578Z,10.46
2019-04-22T23:19:52.794Z,10.42
2019-04-22T23:22:34.284Z,10.46
2019-04-22T23:25:24.806Z,10.42
2019-04-22T23:27:57.094Z,10.38
2019-04-22T23:30:40.071Z,10.32
2019-04-22T23:33:26.468Z,10.30
2019-04-22T23:36:06.416Z,10.28
2019-04-22T23:38:51.860Z,10.27
2019-04-22T23:44:21.000Z,10.23
2019-04-22T23:46:46.608Z,10.18
2019-04-22T23:49:17.417Z,10.13
2019-04-22T23:52:02.722Z,10.13
2019-04-22T23:54:38.870Z,10.08
2019-04-22T23:57:02.038Z,10.11
